sensor_id;sensor_type;location;lat;lon;timestamp;P1;durP1;ratioP1;P2;durP2;ratioP2
80698;SDS011;70062;51.658;5.658;2024-02-26T00:00:16;1.20;;;1.10;;
80698;SDS011;70062;51.658;5.658;2024-02-26T00:02:45;1.80;;;1.40;;
80698;SDS011;70062;51.658;5.658;2024-02-26T00:05:13;1.60;;;1.40;;
80698;SDS011;70062;51.658;5.658;2024-02-26T00:07:40;1.50;;;1.30;;
80698;SDS011;70062;51.658;5.658;2024-02-26T00:10:07;1.90;;;1.20;;
80698;SDS011;70062;51.658;5.658;2024-02-26T00:12:45;1.50;;;1.30;;
80698;SDS011;70062;51.658;5.658;2024-02-26T00:15:13;1.70;;;1.40;;
80698;SDS011;70062;51.658;5.658;2024-02-26T00:17:40;2.30;;;1.40;;
80698;SDS011;70062;51.658;5.658;2024-02-26T00:20:14;1.80;;;1.30;;
80698;SDS011;70062;51.658;5.658;2024-02-26T00:22:42;1.50;;;1.40;;
80698;SDS011;70062;51.658;5.658;2024-02-26T00:25:13;1.80;;;1.40;;
80698;SDS011;70062;51.658;5.658;2024-02-26T00:27:42;2.00;;;1.40;;
80698;SDS011;70062;51.658;5.658;2024-02-26T00:30:09;1.50;;;1.30;;
80698;SDS011;70062;51.658;5.658;2024-02-26T00:32:37;1.50;;;1.40;;
80698;SDS011;70062;51.658;5.658;2024-02-26T00:37:35;1.70;;;1.40;;
80698;SDS011;70062;51.658;5.658;2024-02-26T00:40:03;1.50;;;1.40;;
80698;SDS011;70062;51.658;5.658;2024-02-26T00:42:30;1.40;;;1.30;;
80698;SDS011;70062;51.658;5.658;2024-02-26T00:45:00;1.40;;;1.30;;
80698;SDS011;70062;51.658;5.658;2024-02-26T00:47:57;1.30;;;1.20;;
80698;SDS011;70062;51.658;5.658;2024-02-26T00:50:48;1.80;;;1.20;;
80698;SDS011;70062;51.658;5.658;2024-02-26T00:53:24;1.50;;;1.20;;
80698;SDS011;70062;51.658;5.658;2024-02-26T00:55:55;1.50;;;1.40;;
80698;SDS011;70062;51.658;5.658;2024-02-26T00:58:35;2.10;;;1.30;;
80698;SDS011;70062;51.658;5.658;2024-02-26T01:01:26;2.80;;;1.40;;
80698;SDS011;70062;51.658;5.658;2024-02-26T01:03:53;1.60;;;1.30;;
80698;SDS011;70062;51.658;5.658;2024-02-26T01:06:22;1.60;;;1.20;;
80698;SDS011;70062;51.658;5.658;2024-02-26T01:08:49;1.50;;;1.20;;
80698;SDS011;70062;51.658;5.658;2024-02-26T01:11:26;1.50;;;1.30;;
80698;SDS011;70062;51.658;5.658;2024-02-26T01:13:53;1.40;;;1.20;;
80698;SDS011;70062;51.658;5.658;2024-02-26T01:16:26;1.30;;;1.20;;
80698;SDS011;70062;51.658;5.658;2024-02-26T01:19:33;1.30;;;1.20;;
80698;SDS011;70062;51.658;5.658;2024-02-26T01:22:01;1.90;;;1.30;;
80698;SDS011;70062;51.658;5.658;2024-02-26T01:24:38;1.50;;;1.30;;
80698;SDS011;70062;51.658;5.658;2024-02-26T01:27:13;1.30;;;1.20;;
80698;SDS011;70062;51.658;5.658;2024-02-26T01:29:42;1.70;;;1.40;;
80698;SDS011;70062;51.658;5.658;2024-02-26T01:32:11;1.50;;;1.20;;
80698;SDS011;70062;51.658;5.658;2024-02-26T01:34:41;1.30;;;1.20;;
80698;SDS011;70062;51.658;5.658;2024-02-26T01:37:08;1.40;;;1.30;;
80698;SDS011;70062;51.658;5.658;2024-02-26T01:39:38;1.40;;;1.30;;
80698;SDS011;70062;51.658;5.658;2024-02-26T01:42:07;2.10;;;1.50;;
80698;SDS011;70062;51.658;5.658;2024-02-26T01:44:36;1.80;;;1.30;;
80698;SDS011;70062;51.658;5.658;2024-02-26T01:47:10;1.20;;;1.10;;
80698;SDS011;70062;51.658;5.658;2024-02-26T01:49:40;1.40;;;1.30;;
80698;SDS011;70062;51.658;5.658;2024-02-26T01:52:11;1.80;;;1.50;;
80698;SDS011;70062;51.658;5.658;2024-02-26T01:54:47;1.60;;;1.30;;
80698;SDS011;70062;51.658;5.658;2024-02-26T01:57:22;1.40;;;1.30;;
80698;SDS011;70062;51.658;5.658;2024-02-26T01:59:52;1.80;;;1.40;;
80698;SDS011;70062;51.658;5.658;2024-02-26T02:02:20;1.50;;;1.20;;
80698;SDS011;70062;51.658;5.658;2024-02-26T02:04:48;2.40;;;1.40;;
80698;SDS011;70062;51.658;5.658;2024-02-26T02:07:15;1.60;;;1.30;;
80698;SDS011;70062;51.658;5.658;2024-02-26T02:09:44;1.60;;;1.30;;
80698;SDS011;70062;51.658;5.658;2024-02-26T02:12:13;1.40;;;1.30;;
80698;SDS011;70062;51.658;5.658;2024-02-26T02:14:40;1.90;;;1.30;;
80698;SDS011;70062;51.658;5.658;2024-02-26T02:17:07;1.30;;;1.20;;
80698;SDS011;70062;51.658;5.658;2024-02-26T02:19:38;1.40;;;1.30;;
80698;SDS011;70062;51.658;5.658;2024-02-26T02:22:07;1.20;;;1.10;;
80698;SDS011;70062;51.658;5.658;2024-02-26T02:24:36;1.40;;;1.30;;
80698;SDS011;70062;51.658;5.658;2024-02-26T02:27:06;2.40;;;1.30;;
80698;SDS011;70062;51.658;5.658;2024-02-26T02:29:34;2.20;;;1.40;;
80698;SDS011;70062;51.658;5.658;2024-02-26T02:32:05;1.40;;;1.30;;
80698;SDS011;70062;51.658;5.658;2024-02-26T02:34:34;1.40;;;1.30;;
80698;SDS011;70062;51.658;5.658;2024-02-26T02:37:03;1.60;;;1.20;;
80698;SDS011;70062;51.658;5.658;2024-02-26T02:39:41;1.50;;;1.20;;
80698;SDS011;70062;51.658;5.658;2024-02-26T02:42:09;2.20;;;1.50;;
80698;SDS011;70062;51.658;5.658;2024-02-26T02:44:36;1.50;;;1.20;;
80698;SDS011;70062;51.658;5.658;2024-02-26T02:47:03;1.20;;;1.10;;
80698;SDS011;70062;51.658;5.658;2024-02-26T02:49:31;1.30;;;1.20;;
80698;SDS011;70062;51.658;5.658;2024-02-26T02:51:57;1.40;;;1.30;;
80698;SDS011;70062;51.658;5.658;2024-02-26T02:54:24;1.60;;;1.30;;
80698;SDS011;70062;51.658;5.658;2024-02-26T02:56:51;1.70;;;1.40;;
80698;SDS011;70062;51.658;5.658;2024-02-26T02:59:18;1.10;;;1.00;;
80698;SDS011;70062;51.658;5.658;2024-02-26T03:01:45;1.30;;;1.20;;
80698;SDS011;70062;51.658;5.658;2024-02-26T03:04:13;1.30;;;1.20;;
80698;SDS011;70062;51.658;5.658;2024-02-26T03:06:43;1.30;;;1.20;;
80698;SDS011;70062;51.658;5.658;2024-02-26T03:09:11;1.40;;;1.30;;
80698;SDS011;70062;51.658;5.658;2024-02-26T03:11:38;1.30;;;1.20;;
80698;SDS011;70062;51.658;5.658;2024-02-26T03:14:05;1.40;;;1.30;;
80698;SDS011;70062;51.658;5.658;2024-02-26T03:16:33;1.40;;;1.20;;
80698;SDS011;70062;51.658;5.658;2024-02-26T03:19:01;1.40;;;1.20;;
80698;SDS011;70062;51.658;5.658;2024-02-26T03:21:29;2.80;;;1.10;;
80698;SDS011;70062;51.658;5.658;2024-02-26T03:23:55;1.80;;;1.40;;
80698;SDS011;70062;51.658;5.658;2024-02-26T03:26:39;1.50;;;1.30;;
80698;SDS011;70062;51.658;5.658;2024-02-26T03:29:12;1.20;;;1.10;;
80698;SDS011;70062;51.658;5.658;2024-02-26T03:31:42;1.20;;;1.10;;
80698;SDS011;70062;51.658;5.658;2024-02-26T03:34:17;1.30;;;1.20;;
80698;SDS011;70062;51.658;5.658;2024-02-26T03:36:47;1.30;;;1.20;;
80698;SDS011;70062;51.658;5.658;2024-02-26T03:39:17;1.60;;;1.20;;
80698;SDS011;70062;51.658;5.658;2024-02-26T03:41:44;1.40;;;1.30;;
80698;SDS011;70062;51.658;5.658;2024-02-26T03:44:12;1.70;;;1.40;;
80698;SDS011;70062;51.658;5.658;2024-02-26T03:46:41;1.30;;;1.10;;
80698;SDS011;70062;51.658;5.658;2024-02-26T03:49:12;1.60;;;1.20;;
80698;SDS011;70062;51.658;5.658;2024-02-26T03:51:41;1.20;;;1.10;;
80698;SDS011;70062;51.658;5.658;2024-02-26T03:54:09;1.40;;;1.30;;
80698;SDS011;70062;51.658;5.658;2024-02-26T03:56:38;1.30;;;1.20;;
80698;SDS011;70062;51.658;5.658;2024-02-26T03:59:07;1.40;;;1.30;;
80698;SDS011;70062;51.658;5.658;2024-02-26T04:01:37;1.50;;;1.40;;
80698;SDS011;70062;51.658;5.658;2024-02-26T04:04:04;1.30;;;1.20;;
80698;SDS011;70062;51.658;5.658;2024-02-26T04:06:34;1.60;;;1.40;;
80698;SDS011;70062;51.658;5.658;2024-02-26T04:09:04;1.50;;;1.30;;
80698;SDS011;70062;51.658;5.658;2024-02-26T04:11:34;1.40;;;1.30;;
80698;SDS011;70062;51.658;5.658;2024-02-26T04:14:01;1.40;;;1.30;;
80698;SDS011;70062;51.658;5.658;2024-02-26T04:16:29;1.40;;;1.30;;
80698;SDS011;70062;51.658;5.658;2024-02-26T04:18:57;1.40;;;1.30;;
80698;SDS011;70062;51.658;5.658;2024-02-26T04:21:25;1.40;;;1.30;;
80698;SDS011;70062;51.658;5.658;2024-02-26T04:23:55;2.40;;;1.50;;
80698;SDS011;70062;51.658;5.658;2024-02-26T04:26:28;1.40;;;1.30;;
80698;SDS011;70062;51.658;5.658;2024-02-26T04:28:59;1.30;;;1.20;;
80698;SDS011;70062;51.658;5.658;2024-02-26T04:31:33;1.10;;;1.00;;
80698;SDS011;70062;51.658;5.658;2024-02-26T04:34:22;1.40;;;1.30;;
80698;SDS011;70062;51.658;5.658;2024-02-26T04:36:52;1.30;;;1.20;;
80698;SDS011;70062;51.658;5.658;2024-02-26T04:39:31;1.40;;;1.30;;
80698;SDS011;70062;51.658;5.658;2024-02-26T04:42:04;1.40;;;1.30;;
80698;SDS011;70062;51.658;5.658;2024-02-26T04:44:43;1.30;;;1.20;;
80698;SDS011;70062;51.658;5.658;2024-02-26T04:47:23;1.20;;;1.10;;
80698;SDS011;70062;51.658;5.658;2024-02-26T04:50:06;1.20;;;1.10;;
80698;SDS011;70062;51.658;5.658;2024-02-26T04:52:40;1.20;;;1.10;;
80698;SDS011;70062;51.658;5.658;2024-02-26T04:55:20;1.40;;;1.30;;
80698;SDS011;70062;51.658;5.658;2024-02-26T04:57:48;1.50;;;1.40;;
80698;SDS011;70062;51.658;5.658;2024-02-26T05:00:47;1.40;;;1.30;;
80698;SDS011;70062;51.658;5.658;2024-02-26T05:03:18;1.30;;;1.20;;
80698;SDS011;70062;51.658;5.658;2024-02-26T05:05:52;1.70;;;1.20;;
80698;SDS011;70062;51.658;5.658;2024-02-26T05:08:40;1.40;;;1.20;;
80698;SDS011;70062;51.658;5.658;2024-02-26T05:11:06;1.30;;;1.20;;
80698;SDS011;70062;51.658;5.658;2024-02-26T05:14:13;1.20;;;1.10;;
80698;SDS011;70062;51.658;5.658;2024-02-26T05:17:22;1.40;;;1.30;;
80698;SDS011;70062;51.658;5.658;2024-02-26T05:20:14;2.20;;;1.50;;
80698;SDS011;70062;51.658;5.658;2024-02-26T05:23:04;1.40;;;1.30;;
80698;SDS011;70062;51.658;5.658;2024-02-26T05:26:29;1.40;;;1.20;;
80698;SDS011;70062;51.658;5.658;2024-02-26T05:29:01;1.60;;;1.10;;
80698;SDS011;70062;51.658;5.658;2024-02-26T05:31:37;1.40;;;1.30;;
80698;SDS011;70062;51.658;5.658;2024-02-26T05:34:08;1.30;;;1.20;;
80698;SDS011;70062;51.658;5.658;2024-02-26T05:36:48;1.20;;;1.10;;
80698;SDS011;70062;51.658;5.658;2024-02-26T05:39:35;2.40;;;1.20;;
80698;SDS011;70062;51.658;5.658;2024-02-26T05:42:09;1.30;;;1.20;;
80698;SDS011;70062;51.658;5.658;2024-02-26T05:45:18;1.20;;;1.10;;
80698;SDS011;70062;51.658;5.658;2024-02-26T05:47:48;1.50;;;1.20;;
80698;SDS011;70062;51.658;5.658;2024-02-26T05:50:16;1.40;;;1.30;;
80698;SDS011;70062;51.658;5.658;2024-02-26T05:52:50;1.60;;;1.20;;
80698;SDS011;70062;51.658;5.658;2024-02-26T05:55:26;1.40;;;1.30;;
80698;SDS011;70062;51.658;5.658;2024-02-26T05:58:26;1.40;;;1.30;;
80698;SDS011;70062;51.658;5.658;2024-02-26T06:01:52;1.30;;;1.20;;
80698;SDS011;70062;51.658;5.658;2024-02-26T06:04:44;1.40;;;1.20;;
80698;SDS011;70062;51.658;5.658;2024-02-26T06:07:45;1.30;;;1.20;;
80698;SDS011;70062;51.658;5.658;2024-02-26T06:10:49;1.30;;;1.20;;
80698;SDS011;70062;51.658;5.658;2024-02-26T06:13:39;1.20;;;1.10;;
80698;SDS011;70062;51.658;5.658;2024-02-26T06:16:28;1.30;;;1.20;;
80698;SDS011;70062;51.658;5.658;2024-02-26T06:18:54;1.40;;;1.30;;
80698;SDS011;70062;51.658;5.658;2024-02-26T06:21:25;1.70;;;1.10;;
80698;SDS011;70062;51.658;5.658;2024-02-26T06:23:55;2.20;;;1.30;;
80698;SDS011;70062;51.658;5.658;2024-02-26T06:26:25;2.10;;;1.30;;
80698;SDS011;70062;51.658;5.658;2024-02-26T06:28:56;1.50;;;1.10;;
80698;SDS011;70062;51.658;5.658;2024-02-26T06:31:24;1.30;;;1.20;;
80698;SDS011;70062;51.658;5.658;2024-02-26T06:33:54;1.50;;;1.30;;
80698;SDS011;70062;51.658;5.658;2024-02-26T06:36:24;1.00;;;1.00;;
80698;SDS011;70062;51.658;5.658;2024-02-26T06:38:54;2.70;;;1.40;;
80698;SDS011;70062;51.658;5.658;2024-02-26T06:41:24;1.30;;;1.20;;
80698;SDS011;70062;51.658;5.658;2024-02-26T06:43:53;1.60;;;1.40;;
80698;SDS011;70062;51.658;5.658;2024-02-26T06:46:24;1.30;;;1.20;;
80698;SDS011;70062;51.658;5.658;2024-02-26T06:48:56;1.50;;;1.40;;
80698;SDS011;70062;51.658;5.658;2024-02-26T06:51:30;1.50;;;1.30;;
80698;SDS011;70062;51.658;5.658;2024-02-26T06:54:02;1.30;;;1.20;;
80698;SDS011;70062;51.658;5.658;2024-02-26T06:56:35;1.40;;;1.30;;
80698;SDS011;70062;51.658;5.658;2024-02-26T06:59:01;1.30;;;1.20;;
80698;SDS011;70062;51.658;5.658;2024-02-26T07:01:27;1.30;;;1.20;;
80698;SDS011;70062;51.658;5.658;2024-02-26T07:03:52;1.20;;;1.10;;
80698;SDS011;70062;51.658;5.658;2024-02-26T07:06:18;1.50;;;1.40;;
80698;SDS011;70062;51.658;5.658;2024-02-26T07:08:47;1.80;;;1.40;;
80698;SDS011;70062;51.658;5.658;2024-02-26T07:11:17;1.60;;;1.30;;
80698;SDS011;70062;51.658;5.658;2024-02-26T07:13:47;1.50;;;1.20;;
80698;SDS011;70062;51.658;5.658;2024-02-26T07:16:17;1.40;;;1.30;;
80698;SDS011;70062;51.658;5.658;2024-02-26T07:18:42;1.70;;;1.40;;
80698;SDS011;70062;51.658;5.658;2024-02-26T07:21:11;1.40;;;1.30;;
80698;SDS011;70062;51.658;5.658;2024-02-26T07:23:37;1.20;;;1.20;;
80698;SDS011;70062;51.658;5.658;2024-02-26T07:26:02;2.20;;;1.50;;
80698;SDS011;70062;51.658;5.658;2024-02-26T07:28:28;1.70;;;1.30;;
80698;SDS011;70062;51.658;5.658;2024-02-26T07:30:53;2.00;;;1.40;;
80698;SDS011;70062;51.658;5.658;2024-02-26T07:33:18;2.30;;;1.30;;
80698;SDS011;70062;51.658;5.658;2024-02-26T07:35:44;2.90;;;1.40;;
80698;SDS011;70062;51.658;5.658;2024-02-26T07:38:11;1.40;;;1.30;;
80698;SDS011;70062;51.658;5.658;2024-02-26T07:40:38;1.30;;;1.20;;
80698;SDS011;70062;51.658;5.658;2024-02-26T07:43:12;1.80;;;1.40;;
80698;SDS011;70062;51.658;5.658;2024-02-26T07:45:41;3.70;;;1.20;;
80698;SDS011;70062;51.658;5.658;2024-02-26T07:48:06;3.10;;;1.40;;
80698;SDS011;70062;51.658;5.658;2024-02-26T07:50:32;2.60;;;1.30;;
80698;SDS011;70062;51.658;5.658;2024-02-26T07:52:57;1.40;;;1.30;;
80698;SDS011;70062;51.658;5.658;2024-02-26T07:55:23;2.30;;;1.50;;
80698;SDS011;70062;51.658;5.658;2024-02-26T07:57:49;2.10;;;1.40;;
80698;SDS011;70062;51.658;5.658;2024-02-26T08:00:15;2.50;;;1.30;;
80698;SDS011;70062;51.658;5.658;2024-02-26T08:02:42;2.20;;;1.40;;
80698;SDS011;70062;51.658;5.658;2024-02-26T08:05:08;4.30;;;1.50;;
80698;SDS011;70062;51.658;5.658;2024-02-26T08:07:34;1.90;;;1.40;;
80698;SDS011;70062;51.658;5.658;2024-02-26T08:09:59;1.30;;;1.20;;
80698;SDS011;70062;51.658;5.658;2024-02-26T08:12:25;3.20;;;1.40;;
80698;SDS011;70062;51.658;5.658;2024-02-26T08:14:51;2.60;;;1.30;;
80698;SDS011;70062;51.658;5.658;2024-02-26T08:17:16;3.10;;;1.50;;
80698;SDS011;70062;51.658;5.658;2024-02-26T08:19:42;5.20;;;1.50;;
80698;SDS011;70062;51.658;5.658;2024-02-26T08:22:08;2.10;;;1.50;;
80698;SDS011;70062;51.658;5.658;2024-02-26T08:24:35;3.20;;;1.60;;
80698;SDS011;70062;51.658;5.658;2024-02-26T08:27:00;3.70;;;1.60;;
80698;SDS011;70062;51.658;5.658;2024-02-26T08:29:26;3.70;;;1.80;;
80698;SDS011;70062;51.658;5.658;2024-02-26T08:31:51;2.90;;;1.80;;
80698;SDS011;70062;51.658;5.658;2024-02-26T08:34:17;2.80;;;1.70;;
80698;SDS011;70062;51.658;5.658;2024-02-26T08:36:42;2.50;;;1.70;;
80698;SDS011;70062;51.658;5.658;2024-02-26T08:39:09;3.50;;;1.90;;
80698;SDS011;70062;51.658;5.658;2024-02-26T08:41:35;2.70;;;1.80;;
80698;SDS011;70062;51.658;5.658;2024-02-26T08:44:01;3.70;;;2.20;;
80698;SDS011;70062;51.658;5.658;2024-02-26T08:46:26;3.90;;;2.20;;
80698;SDS011;70062;51.658;5.658;2024-02-26T08:48:52;2.90;;;2.20;;
80698;SDS011;70062;51.658;5.658;2024-02-26T08:51:19;3.20;;;2.20;;
80698;SDS011;70062;51.658;5.658;2024-02-26T08:53:45;4.20;;;2.10;;
80698;SDS011;70062;51.658;5.658;2024-02-26T08:56:11;3.90;;;2.30;;
80698;SDS011;70062;51.658;5.658;2024-02-26T08:58:41;6.40;;;2.40;;
80698;SDS011;70062;51.658;5.658;2024-02-26T09:01:07;3.50;;;2.40;;
80698;SDS011;70062;51.658;5.658;2024-02-26T09:03:33;5.00;;;2.50;;
80698;SDS011;70062;51.658;5.658;2024-02-26T09:05:58;4.00;;;2.60;;
80698;SDS011;70062;51.658;5.658;2024-02-26T09:08:24;4.50;;;2.50;;
80698;SDS011;70062;51.658;5.658;2024-02-26T09:10:51;3.30;;;2.80;;
80698;SDS011;70062;51.658;5.658;2024-02-26T09:13:32;3.80;;;2.60;;
80698;SDS011;70062;51.658;5.658;2024-02-26T09:15:58;3.10;;;2.50;;
80698;SDS011;70062;51.658;5.658;2024-02-26T09:18:24;3.30;;;2.70;;
80698;SDS011;70062;51.658;5.658;2024-02-26T09:20:51;3.90;;;2.90;;
80698;SDS011;70062;51.658;5.658;2024-02-26T09:23:19;4.90;;;2.60;;
80698;SDS011;70062;51.658;5.658;2024-02-26T09:25:44;4.70;;;2.70;;
80698;SDS011;70062;51.658;5.658;2024-02-26T09:28:32;5.70;;;2.80;;
80698;SDS011;70062;51.658;5.658;2024-02-26T09:31:38;4.10;;;2.70;;
80698;SDS011;70062;51.658;5.658;2024-02-26T09:34:42;6.60;;;2.90;;
80698;SDS011;70062;51.658;5.658;2024-02-26T09:37:07;6.60;;;3.20;;
80698;SDS011;70062;51.658;5.658;2024-02-26T09:40:04;5.90;;;3.20;;
80698;SDS011;70062;51.658;5.658;2024-02-26T09:42:59;7.50;;;3.60;;
80698;SDS011;70062;51.658;5.658;2024-02-26T09:45:25;7.50;;;3.60;;
80698;SDS011;70062;51.658;5.658;2024-02-26T09:47:53;7.70;;;3.70;;
80698;SDS011;70062;51.658;5.658;2024-02-26T09:50:22;7.40;;;3.70;;
80698;SDS011;70062;51.658;5.658;2024-02-26T09:52:48;7.70;;;3.70;;
80698;SDS011;70062;51.658;5.658;2024-02-26T09:55:15;5.90;;;3.40;;
80698;SDS011;70062;51.658;5.658;2024-02-26T09:57:46;5.50;;;3.60;;
80698;SDS011;70062;51.658;5.658;2024-02-26T10:00:20;7.00;;;3.70;;
80698;SDS011;70062;51.658;5.658;2024-02-26T10:02:47;8.90;;;3.80;;
80698;SDS011;70062;51.658;5.658;2024-02-26T10:05:14;5.60;;;3.70;;
80698;SDS011;70062;51.658;5.658;2024-02-26T10:07:44;5.40;;;3.40;;
80698;SDS011;70062;51.658;5.658;2024-02-26T10:10:17;6.50;;;3.50;;
80698;SDS011;70062;51.658;5.658;2024-02-26T10:12:43;6.70;;;3.40;;
80698;SDS011;70062;51.658;5.658;2024-02-26T10:15:09;7.50;;;3.50;;
80698;SDS011;70062;51.658;5.658;2024-02-26T10:17:34;5.70;;;3.50;;
80698;SDS011;70062;51.658;5.658;2024-02-26T10:20:12;5.60;;;3.30;;
80698;SDS011;70062;51.658;5.658;2024-02-26T10:22:41;7.70;;;3.70;;
80698;SDS011;70062;51.658;5.658;2024-02-26T10:25:07;8.70;;;3.60;;
80698;SDS011;70062;51.658;5.658;2024-02-26T10:27:33;4.40;;;3.40;;
80698;SDS011;70062;51.658;5.658;2024-02-26T10:30:02;9.80;;;3.60;;
80698;SDS011;70062;51.658;5.658;2024-02-26T10:32:29;5.70;;;3.60;;
80698;SDS011;70062;51.658;5.658;2024-02-26T10:34:56;7.20;;;3.40;;
80698;SDS011;70062;51.658;5.658;2024-02-26T10:37:22;5.80;;;3.30;;
80698;SDS011;70062;51.658;5.658;2024-02-26T10:39:48;8.10;;;3.60;;
80698;SDS011;70062;51.658;5.658;2024-02-26T10:42:13;5.90;;;3.50;;
80698;SDS011;70062;51.658;5.658;2024-02-26T10:44:40;6.80;;;3.40;;
80698;SDS011;70062;51.658;5.658;2024-02-26T10:47:07;5.10;;;3.10;;
80698;SDS011;70062;51.658;5.658;2024-02-26T10:49:33;5.80;;;3.30;;
80698;SDS011;70062;51.658;5.658;2024-02-26T10:52:00;6.30;;;3.60;;
80698;SDS011;70062;51.658;5.658;2024-02-26T10:54:47;5.40;;;3.30;;
80698;SDS011;70062;51.658;5.658;2024-02-26T10:57:13;5.40;;;3.30;;
80698;SDS011;70062;51.658;5.658;2024-02-26T10:59:47;4.40;;;3.20;;
80698;SDS011;70062;51.658;5.658;2024-02-26T11:02:20;7.10;;;3.40;;
80698;SDS011;70062;51.658;5.658;2024-02-26T11:04:46;4.40;;;3.80;;
80698;SDS011;70062;51.658;5.658;2024-02-26T11:07:13;6.50;;;3.10;;
80698;SDS011;70062;51.658;5.658;2024-02-26T11:09:40;5.40;;;3.40;;
80698;SDS011;70062;51.658;5.658;2024-02-26T11:12:10;8.80;;;3.70;;
80698;SDS011;70062;51.658;5.658;2024-02-26T11:14:38;5.80;;;3.80;;
80698;SDS011;70062;51.658;5.658;2024-02-26T11:17:05;6.90;;;3.40;;
80698;SDS011;70062;51.658;5.658;2024-02-26T11:19:34;6.00;;;3.80;;
80698;SDS011;70062;51.658;5.658;2024-02-26T11:22:01;6.30;;;3.60;;
80698;SDS011;70062;51.658;5.658;2024-02-26T11:24:27;5.50;;;3.80;;
80698;SDS011;70062;51.658;5.658;2024-02-26T11:26:54;8.80;;;4.30;;
80698;SDS011;70062;51.658;5.658;2024-02-26T11:29:28;7.20;;;3.80;;
80698;SDS011;70062;51.658;5.658;2024-02-26T11:31:59;7.00;;;3.90;;
80698;SDS011;70062;51.658;5.658;2024-02-26T11:34:25;9.00;;;4.00;;
80698;SDS011;70062;51.658;5.658;2024-02-26T11:36:52;10.70;;;4.50;;
80698;SDS011;70062;51.658;5.658;2024-02-26T11:39:18;8.20;;;4.60;;
80698;SDS011;70062;51.658;5.658;2024-02-26T11:41:45;7.70;;;4.50;;
80698;SDS011;70062;51.658;5.658;2024-02-26T11:44:11;7.70;;;4.90;;
80698;SDS011;70062;51.658;5.658;2024-02-26T11:46:56;13.20;;;5.60;;
80698;SDS011;70062;51.658;5.658;2024-02-26T11:51:54;8.20;;;5.40;;
80698;SDS011;70062;51.658;5.658;2024-02-26T11:54:45;9.10;;;5.80;;
80698;SDS011;70062;51.658;5.658;2024-02-26T11:57:23;10.90;;;6.90;;
80698;SDS011;70062;51.658;5.658;2024-02-26T12:00:10;11.70;;;7.20;;
80698;SDS011;70062;51.658;5.658;2024-02-26T12:02:51;12.20;;;7.10;;
80698;SDS011;70062;51.658;5.658;2024-02-26T12:05:23;11.70;;;6.90;;
80698;SDS011;70062;51.658;5.658;2024-02-26T12:08:28;11.00;;;7.30;;
80698;SDS011;70062;51.658;5.658;2024-02-26T12:10:57;12.80;;;7.60;;
80698;SDS011;70062;51.658;5.658;2024-02-26T12:13:45;11.00;;;7.20;;
80698;SDS011;70062;51.658;5.658;2024-02-26T12:16:52;15.40;;;7.80;;
80698;SDS011;70062;51.658;5.658;2024-02-26T12:20:13;17.00;;;9.00;;
80698;SDS011;70062;51.658;5.658;2024-02-26T12:22:45;17.50;;;10.20;;
80698;SDS011;70062;51.658;5.658;2024-02-26T12:25:24;20.30;;;10.10;;
80698;SDS011;70062;51.658;5.658;2024-02-26T12:27:55;18.40;;;9.70;;
80698;SDS011;70062;51.658;5.658;2024-02-26T12:30:23;19.00;;;9.60;;
80698;SDS011;70062;51.658;5.658;2024-02-26T12:33:48;21.90;;;10.40;;
80698;SDS011;70062;51.658;5.658;2024-02-26T12:37:01;16.60;;;10.30;;
80698;SDS011;70062;51.658;5.658;2024-02-26T12:40:28;16.00;;;9.50;;
80698;SDS011;70062;51.658;5.658;2024-02-26T12:42:54;21.10;;;10.80;;
80698;SDS011;70062;51.658;5.658;2024-02-26T12:45:22;15.70;;;10.90;;
80698;SDS011;70062;51.658;5.658;2024-02-26T12:47:50;16.80;;;11.10;;
80698;SDS011;70062;51.658;5.658;2024-02-26T12:50:16;18.10;;;10.30;;
80698;SDS011;70062;51.658;5.658;2024-02-26T12:52:46;16.70;;;9.90;;
80698;SDS011;70062;51.658;5.658;2024-02-26T12:55:16;14.20;;;9.60;;
80698;SDS011;70062;51.658;5.658;2024-02-26T12:57:44;18.20;;;10.90;;
80698;SDS011;70062;51.658;5.658;2024-02-26T13:00:14;15.60;;;10.50;;
80698;SDS011;70062;51.658;5.658;2024-02-26T13:02:43;17.00;;;10.10;;
80698;SDS011;70062;51.658;5.658;2024-02-26T13:05:10;15.70;;;10.80;;
80698;SDS011;70062;51.658;5.658;2024-02-26T13:07:42;16.90;;;10.30;;
80698;SDS011;70062;51.658;5.658;2024-02-26T13:10:08;20.10;;;11.10;;
80698;SDS011;70062;51.658;5.658;2024-02-26T13:12:37;17.30;;;10.80;;
80698;SDS011;70062;51.658;5.658;2024-02-26T13:15:07;16.20;;;10.40;;
80698;SDS011;70062;51.658;5.658;2024-02-26T13:17:39;15.80;;;10.30;;
80698;SDS011;70062;51.658;5.658;2024-02-26T13:20:04;15.80;;;10.30;;
80698;SDS011;70062;51.658;5.658;2024-02-26T13:22:31;13.10;;;10.20;;
80698;SDS011;70062;51.658;5.658;2024-02-26T13:24:58;15.40;;;10.20;;
80698;SDS011;70062;51.658;5.658;2024-02-26T13:27:24;16.70;;;9.80;;
80698;SDS011;70062;51.658;5.658;2024-02-26T13:32:36;15.60;;;9.70;;
80698;SDS011;70062;51.658;5.658;2024-02-26T13:35:10;17.00;;;10.20;;
80698;SDS011;70062;51.658;5.658;2024-02-26T13:37:37;14.10;;;10.00;;
80698;SDS011;70062;51.658;5.658;2024-02-26T13:40:10;14.80;;;10.00;;
80698;SDS011;70062;51.658;5.658;2024-02-26T13:42:37;13.00;;;10.30;;
80698;SDS011;70062;51.658;5.658;2024-02-26T13:45:05;16.90;;;10.10;;
80698;SDS011;70062;51.658;5.658;2024-02-26T13:47:40;15.40;;;9.90;;
80698;SDS011;70062;51.658;5.658;2024-02-26T13:50:24;14.40;;;10.00;;
80698;SDS011;70062;51.658;5.658;2024-02-26T13:52:50;13.70;;;9.60;;
80698;SDS011;70062;51.658;5.658;2024-02-26T13:55:28;13.80;;;9.90;;
80698;SDS011;70062;51.658;5.658;2024-02-26T13:58:07;15.10;;;9.20;;
80698;SDS011;70062;51.658;5.658;2024-02-26T14:01:15;15.70;;;9.40;;
80698;SDS011;70062;51.658;5.658;2024-02-26T14:03:47;12.70;;;9.20;;
80698;SDS011;70062;51.658;5.658;2024-02-26T14:06:14;13.20;;;9.20;;
80698;SDS011;70062;51.658;5.658;2024-02-26T14:08:48;14.50;;;9.40;;
80698;SDS011;70062;51.658;5.658;2024-02-26T14:11:24;12.30;;;9.20;;
80698;SDS011;70062;51.658;5.658;2024-02-26T14:13:50;15.00;;;9.60;;
80698;SDS011;70062;51.658;5.658;2024-02-26T14:16:16;13.90;;;9.60;;
80698;SDS011;70062;51.658;5.658;2024-02-26T14:18:42;14.50;;;9.60;;
80698;SDS011;70062;51.658;5.658;2024-02-26T14:21:09;13.40;;;9.70;;
80698;SDS011;70062;51.658;5.658;2024-02-26T14:23:39;13.50;;;9.60;;
80698;SDS011;70062;51.658;5.658;2024-02-26T14:26:05;15.30;;;9.70;;
80698;SDS011;70062;51.658;5.658;2024-02-26T14:28:31;16.10;;;9.20;;
80698;SDS011;70062;51.658;5.658;2024-02-26T14:30:58;14.80;;;9.50;;
80698;SDS011;70062;51.658;5.658;2024-02-26T14:33:23;11.10;;;9.20;;
80698;SDS011;70062;51.658;5.658;2024-02-26T14:35:49;13.90;;;9.20;;
80698;SDS011;70062;51.658;5.658;2024-02-26T14:38:19;13.00;;;9.30;;
80698;SDS011;70062;51.658;5.658;2024-02-26T14:40:53;17.00;;;9.50;;
80698;SDS011;70062;51.658;5.658;2024-02-26T14:43:18;15.00;;;8.70;;
80698;SDS011;70062;51.658;5.658;2024-02-26T14:46:41;14.70;;;9.00;;
80698;SDS011;70062;51.658;5.658;2024-02-26T14:49:07;14.70;;;8.70;;
80698;SDS011;70062;51.658;5.658;2024-02-26T14:51:32;14.90;;;9.10;;
80698;SDS011;70062;51.658;5.658;2024-02-26T14:53:58;11.50;;;8.80;;
80698;SDS011;70062;51.658;5.658;2024-02-26T14:56:26;20.00;;;8.70;;
80698;SDS011;70062;51.658;5.658;2024-02-26T14:58:51;13.30;;;8.40;;
80698;SDS011;70062;51.658;5.658;2024-02-26T15:01:17;16.40;;;8.80;;
80698;SDS011;70062;51.658;5.658;2024-02-26T15:03:42;15.90;;;9.30;;
80698;SDS011;70062;51.658;5.658;2024-02-26T15:06:08;12.50;;;8.40;;
80698;SDS011;70062;51.658;5.658;2024-02-26T15:08:33;12.30;;;8.60;;
80698;SDS011;70062;51.658;5.658;2024-02-26T15:11:08;14.20;;;9.00;;
80698;SDS011;70062;51.658;5.658;2024-02-26T15:13:45;15.90;;;8.90;;
80698;SDS011;70062;51.658;5.658;2024-02-26T15:16:17;14.50;;;9.10;;
80698;SDS011;70062;51.658;5.658;2024-02-26T15:18:46;12.30;;;8.60;;
80698;SDS011;70062;51.658;5.658;2024-02-26T15:21:12;14.50;;;8.60;;